Time;durP1;ratioP1;P1;durP2;ratioP2;P2;SDS_P1;SDS_P2;PMS_P1;PMS_P2;Temp;Humidity;BMP_temperature;BMP_pressure;BME280_temperature;BME280_humidity;BME280_pressure;Samples;Min_cycle;Max_cycle;Signal;HPM_P1;HPM_P2
2024/01/14 00:01:20;;;;;;;101.87;52.27;;;;;;;0.40;100.00;101493.59;5283458;28;20112;-70
2024/01/14 00:03:51;;;;;;;102.80;54.17;;;;;;;0.40;100.00;101496.19;5284141;28;20020;-70
2024/01/14 00:06:23;;;;;;;93.57;51.57;;;;;;;0.36;100.00;101482.34;5283613;28;20033;-70
2024/01/14 00:08:55;;;;;;;99.43;54.20;;;;;;;0.43;100.00;101478.34;5283472;28;20408;-70
2024/01/14 00:11:26;;;;;;;101.63;50.43;;;;;;;0.43;100.00;101488.59;5283416;28;20119;-70
2024/01/14 00:13:58;;;;;;;102.20;52.63;;;;;;;0.36;100.00;101475.53;5283361;28;20025;-70
2024/01/14 00:16:34;;;;;;;100.67;52.90;;;;;;;0.36;100.00;101475.53;5283516;28;20467;-70
2024/01/14 00:19:05;;;;;;;99.75;52.00;;;;;;;0.38;100.00;101470.47;5283330;28;20066;-71
2024/01/14 00:21:37;;;;;;;99.03;51.43;;;;;;;0.37;100.00;101461.00;5283556;28;20024;-71
2024/01/14 00:24:08;;;;;;;108.30;55.27;;;;;;;0.38;100.00;101473.03;5283482;28;20032;-71
2024/01/14 00:26:40;;;;;;;116.47;54.13;;;;;;;0.40;100.00;101473.09;5283271;28;20103;-71
2024/01/14 00:29:11;;;;;;;109.00;54.20;;;;;;;0.43;100.00;101465.53;5283106;28;20059;-71
2024/01/14 00:31:42;;;;;;;100.07;52.07;;;;;;;0.43;100.00;101456.13;5282899;28;20477;-71
2024/01/14 00:34:14;;;;;;;108.93;56.53;;;;;;;0.42;100.00;101461.19;5283044;28;20036;-71
2024/01/14 00:36:45;;;;;;;106.17;52.33;;;;;;;0.44;100.00;101455.31;5282995;28;20028;-71
2024/01/14 00:39:17;;;;;;;93.97;48.10;;;;;;;0.43;100.00;101447.56;5283241;28;20029;-70
2024/01/14 00:41:48;;;;;;;110.27;52.37;;;;;;;0.45;100.00;101451.94;5283028;28;20025;-70
2024/01/14 00:44:20;;;;;;;112.10;51.60;;;;;;;0.49;100.00;101447.81;5282947;28;20024;-69
2024/01/14 00:46:52;;;;;;;101.07;49.73;;;;;;;0.48;100.00;101435.78;5282964;28;20060;-71
2024/01/14 00:49:23;;;;;;;102.07;50.25;;;;;;;0.48;100.00;101435.78;5281754;28;20111;-70
2024/01/14 00:51:55;;;;;;;101.83;52.57;;;;;;;0.51;100.00;101436.78;5264726;28;20425;-70
2024/01/14 00:54:26;;;;;;;104.97;52.60;;;;;;;0.48;100.00;101443.47;5282172;28;20505;-69
2024/01/14 00:56:59;;;;;;;99.70;50.38;;;;;;;0.49;100.00;101442.69;5282126;28;20053;-69
2024/01/14 00:59:30;;;;;;;95.70;49.80;;;;;;;0.48;100.00;101436.69;5282601;28;20381;-69
2024/01/14 01:02:01;;;;;;;95.73;48.03;;;;;;;0.47;100.00;101431.50;5282633;28;20044;-69
2024/01/14 01:04:33;;;;;;;101.97;53.40;;;;;;;0.44;100.00;101432.25;5283026;28;20028;-69
2024/01/14 01:07:04;;;;;;;105.53;50.80;;;;;;;0.48;100.00;101434.13;5282693;28;20029;-70
2024/01/14 01:09:36;;;;;;;101.07;48.50;;;;;;;0.47;100.00;101423.81;5283027;28;20157;-69
2024/01/14 01:12:07;;;;;;;107.30;50.40;;;;;;;0.46;100.00;101417.78;5283445;28;20021;-70
2024/01/14 01:14:39;;;;;;;98.33;50.93;;;;;;;0.47;100.00;101414.41;5282759;28;20052;-70
2024/01/14 01:17:10;;;;;;;105.30;54.00;;;;;;;0.49;100.00;101404.19;5283090;28;20032;-69
2024/01/14 01:19:41;;;;;;;95.17;48.53;;;;;;;0.49;100.00;101407.63;5282749;28;20032;-70
2024/01/14 01:22:13;;;;;;;91.20;48.27;;;;;;;0.49;100.00;101397.38;5283214;28;20051;-70
2024/01/14 01:24:44;;;;;;;95.80;49.13;;;;;;;0.46;100.00;101401.50;5283158;28;20447;-70
2024/01/14 01:27:16;;;;;;;92.47;48.87;;;;;;;0.49;100.00;101399.06;5282543;28;20032;-70
2024/01/14 01:29:48;;;;;;;102.72;53.47;;;;;;;0.48;100.00;101398.22;5282828;28;20074;-71
2024/01/14 01:32:19;;;;;;;96.20;48.43;;;;;;;0.52;100.00;101402.63;5282389;28;20029;-70
2024/01/14 01:34:51;;;;;;;98.83;49.93;;;;;;;0.54;100.00;101405.25;5282151;28;20024;-68
2024/01/14 01:37:22;;;;;;;94.60;48.87;;;;;;;0.56;100.00;101407.88;5282541;28;20368;-71
2024/01/14 01:39:53;;;;;;;96.93;51.57;;;;;;;0.52;100.00;101401.75;5282375;28;20440;-70
2024/01/14 01:42:25;;;;;;;94.03;48.70;;;;;;;0.53;100.00;101398.34;5281344;28;20036;-71
2024/01/14 01:44:56;;;;;;;96.83;50.90;;;;;;;0.53;100.00;101398.34;5282516;28;20024;-70
2024/01/14 01:47:28;;;;;;;97.57;50.17;;;;;;;0.51;100.00;101405.13;5282480;28;20093;-70
2024/01/14 01:50:00;;;;;;;92.70;48.43;;;;;;;0.50;100.00;101404.25;5282531;28;20037;-69
2024/01/14 01:52:31;;;;;;;97.63;49.60;;;;;;;0.50;100.00;101399.13;5282454;28;20031;-70
2024/01/14 01:55:05;;;;;;;103.53;53.33;;;;;;;0.43;100.00;101396.28;5281907;28;20025;-69
2024/01/14 01:57:37;;;;;;;100.88;49.42;;;;;;;0.39;100.00;101395.28;5282119;28;20048;-70
2024/01/14 02:00:10;;;;;;;109.88;56.67;;;;;;;0.34;100.00;101400.22;5282379;28;20028;-70
2024/01/14 02:02:42;;;;;;;105.32;51.97;;;;;;;0.32;100.00;101389.03;5282226;28;20053;-70
2024/01/14 02:05:14;;;;;;;114.80;54.30;;;;;;;0.28;100.00;101386.31;5282183;28;20089;-70
2024/01/14 02:07:45;;;;;;;114.13;53.57;;;;;;;0.29;100.00;101377.78;5282199;28;20407;-69
2024/01/14 02:10:17;;;;;;;108.67;55.00;;;;;;;0.29;100.00;101382.91;5282016;28;20024;-70
2024/01/14 02:12:49;;;;;;;98.17;47.87;;;;;;;0.31;100.00;101379.59;5285882;28;20108;-70
2024/01/14 02:15:20;;;;;;;108.93;53.55;;;;;;;0.32;100.00;101372.75;5284498;28;20053;-69
2024/01/14 02:17:52;;;;;;;102.90;53.37;;;;;;;0.31;100.00;101376.16;5285894;28;20046;-69
2024/01/14 02:20:23;;;;;;;107.23;50.90;;;;;;;0.27;100.00;101367.44;5286129;28;20099;-70
2024/01/14 02:22:56;;;;;;;111.70;59.23;;;;;;;0.23;100.00;101372.44;5286139;28;20051;-70
2024/01/14 02:25:28;;;;;;;108.53;51.90;;;;;;;0.27;100.00;101375.16;5286024;28;20102;-70
2024/01/14 02:28:03;;;;;;;;;;;;;;;0.25;100.00;101371.66;5286064;28;20124;-70
2024/01/14 02:30:36;;;;;;;115.97;55.75;;;;;;;0.25;100.00;101376.78;5285770;28;20385;-69
2024/01/14 02:33:07;;;;;;;110.40;54.35;;;;;;;0.23;100.00;101372.44;5286129;28;20063;-69
2024/01/14 02:35:39;;;;;;;119.57;58.00;;;;;;;0.24;100.00;101369.94;5285853;28;20060;-69
2024/01/14 02:38:11;;;;;;;105.95;49.22;;;;;;;0.28;100.00;101368.34;5285109;28;20471;-69
2024/01/14 02:40:42;;;;;;;119.77;56.20;;;;;;;0.23;100.00;101375.84;5284960;28;20073;-69
2024/01/14 02:43:14;;;;;;;125.53;57.53;;;;;;;0.23;100.00;101359.63;5285252;28;20083;-69
2024/01/14 02:45:45;;;;;;;117.37;55.60;;;;;;;0.20;100.00;101347.53;5285752;28;20067;-69
2024/01/14 02:48:16;;;;;;;119.27;56.20;;;;;;;0.25;100.00;101348.56;5285336;28;20031;-70
2024/01/14 02:50:48;;;;;;;126.13;56.67;;;;;;;0.18;100.00;101339.78;5267276;28;20036;-70
2024/01/14 02:53:19;;;;;;;125.03;56.77;;;;;;;0.20;100.00;101339.84;5285420;28;20476;-70
2024/01/14 02:55:50;;;;;;;115.60;53.70;;;;;;;0.21;100.00;101331.34;5284790;28;20060;-70
2024/01/14 02:58:22;;;;;;;121.63;59.23;;;;;;;0.19;100.00;101322.69;5285750;28;20131;-70
2024/01/14 03:00:54;;;;;;;113.67;54.80;;;;;;;0.12;100.00;101319.03;5285075;28;20451;-68
2024/01/14 03:03:26;;;;;;;115.47;56.65;;;;;;;0.12;100.00;101319.03;5285368;28;20048;-70
2024/01/14 03:05:57;;;;;;;105.97;51.70;;;;;;;0.12;100.00;101315.59;5284900;28;20070;-69
2024/01/14 03:08:28;;;;;;;105.03;52.07;;;;;;;0.11;100.00;101313.84;5284882;28;20052;-70
2024/01/14 03:11:00;;;;;;;106.83;52.60;;;;;;;0.06;100.00;101305.97;5284709;28;20075;-69
2024/01/14 03:13:31;;;;;;;106.87;51.33;;;;;;;0.08;100.00;101300.91;5285188;28;20035;-69
2024/01/14 03:16:03;;;;;;;101.53;50.53;;;;;;;0.05;100.00;101300.78;5284879;28;20108;-69
2024/01/14 03:18:34;;;;;;;102.47;51.00;;;;;;;-0.01;100.00;101296.31;5284661;28;20093;-69
2024/01/14 03:21:05;;;;;;;96.80;51.07;;;;;;;-0.04;100.00;101294.50;5284360;28;20060;-69
2024/01/14 03:23:37;;;;;;;103.87;50.80;;;;;;;0.01;100.00;101298.94;5283803;28;20032;-69
2024/01/14 03:26:08;;;;;;;104.10;50.43;;;;;;;-0.03;100.00;101295.38;5283758;28;20032;-69
2024/01/14 03:28:40;;;;;;;101.53;52.53;;;;;;;0.00;100.00;101290.38;5284340;28;20056;-69
2024/01/14 03:31:15;;;;;;;107.70;50.40;;;;;;;-0.01;100.00;101291.19;5284136;28;20029;-69
2024/01/14 03:33:46;;;;;;;106.15;53.05;;;;;;;-0.03;100.00;101280.00;5284236;28;20426;-69
2024/01/14 03:36:18;;;;;;;106.37;52.53;;;;;;;-0.03;100.00;101288.56;5284001;28;20123;-69
2024/01/14 03:38:49;;;;;;;97.90;47.07;;;;;;;0.02;100.00;101275.03;5284451;28;20029;-68
2024/01/14 03:41:21;;;;;;;100.97;50.47;;;;;;;-0.04;100.00;101276.56;5284035;28;20044;-69
2024/01/14 03:43:52;;;;;;;92.90;47.40;;;;;;;0.01;100.00;101276.72;5284035;28;20448;-68
2024/01/14 03:46:23;;;;;;;94.17;48.77;;;;;;;0.01;100.00;101286.13;5283791;28;20051;-68
2024/01/14 03:48:55;;;;;;;98.97;56.03;;;;;;;-0.08;100.00;101272.16;5283970;28;20058;-69
2024/01/14 03:51:26;;;;;;;96.53;48.87;;;;;;;-0.07;100.00;101279.00;5284107;28;20100;-69
2024/01/14 03:53:58;;;;;;;97.00;51.23;;;;;;;-0.06;100.00;101275.63;5282191;28;20451;-69
2024/01/14 03:56:29;;;;;;;92.70;46.27;;;;;;;-0.04;100.00;101274.00;5283661;28;20031;-69
2024/01/14 03:59:00;;;;;;;88.33;46.73;;;;;;;-0.02;100.00;101269.81;5283576;28;20044;-69
2024/01/14 04:01:32;;;;;;;90.80;45.97;;;;;;;-0.05;100.00;101264.56;5283954;28;20067;-70
2024/01/14 04:04:03;;;;;;;88.03;46.33;;;;;;;-0.04;100.00;101261.19;5283391;28;20071;-70
2024/01/14 04:06:35;;;;;;;82.53;44.37;;;;;;;-0.05;100.00;101273.94;5283605;28;20364;-70
2024/01/14 04:09:06;;;;;;;86.30;45.60;;;;;;;-0.06;100.00;101267.94;5283671;28;20020;-70
2024/01/14 04:11:38;;;;;;;86.93;45.97;;;;;;;-0.04;100.00;101256.06;5283743;28;20164;-70
2024/01/14 04:14:09;;;;;;;97.40;46.27;;;;;;;-0.06;100.00;101260.25;5283872;28;20028;-70
2024/01/14 04:16:41;;;;;;;84.00;44.57;;;;;;;-0.02;100.00;101256.13;5283524;28;20025;-69
2024/01/14 04:19:12;;;;;;;85.60;43.30;;;;;;;-0.04;100.00;101247.50;5283517;28;20036;-70
2024/01/14 04:21:44;;;;;;;85.93;44.97;;;;;;;-0.07;100.00;101248.25;5283604;28;20028;-70
2024/01/14 04:24:15;;;;;;;85.20;46.37;;;;;;;-0.10;100.00;101247.25;5283359;28;20078;-70
2024/01/14 04:26:46;;;;;;;81.53;45.50;;;;;;;-0.12;100.00;101241.22;5282236;28;20124;-70
2024/01/14 04:29:18;;;;;;;83.67;44.43;;;;;;;-0.10;100.00;101244.69;5281974;28;20039;-71
2024/01/14 04:31:49;;;;;;;82.20;43.03;;;;;;;-0.12;100.00;101243.78;5282034;28;20504;-68
2024/01/14 04:34:20;;;;;;;89.97;44.73;;;;;;;-0.10;100.00;101245.56;5283162;28;20054;-69
2024/01/14 04:36:52;;;;;;;80.80;40.13;;;;;;;-0.07;100.00;101253.38;5283009;28;20131;-69
2024/01/14 04:39:23;;;;;;;77.87;41.67;;;;;;;-0.09;100.00;101244.75;5283062;28;20035;-70
2024/01/14 04:41:54;;;;;;;83.17;42.27;;;;;;;-0.10;100.00;101245.56;5283296;28;20060;-70
2024/01/14 04:44:26;;;;;;;75.27;40.83;;;;;;;-0.06;100.00;101244.88;5283523;28;20036;-70
2024/01/14 04:46:57;;;;;;;73.87;39.33;;;;;;;-0.09;100.00;101239.63;5283123;28;20036;-69
2024/01/14 04:49:29;;;;;;;77.70;41.67;;;;;;;-0.13;100.00;101244.56;5282833;28;20028;-70
2024/01/14 04:52:00;;;;;;;67.63;37.87;;;;;;;-0.18;100.00;101231.59;5282669;28;20029;-70
2024/01/14 04:54:32;;;;;;;72.23;37.60;;;;;;;-0.15;100.00;101229.16;5283230;28;20048;-70
2024/01/14 04:57:03;;;;;;;70.77;35.77;;;;;;;-0.13;100.00;101227.53;5282870;28;20028;-70
2024/01/14 04:59:35;;;;;;;64.83;35.90;;;;;;;-0.12;100.00;101224.13;5283174;28;20055;-70
2024/01/14 05:02:07;;;;;;;65.20;36.13;;;;;;;-0.12;100.00;101223.28;5281570;28;20079;-70
2024/01/14 05:04:38;;;;;;;67.78;34.65;;;;;;;-0.13;100.00;101216.41;5281577;28;20024;-70
2024/01/14 05:07:10;;;;;;;62.17;33.43;;;;;;;-0.12;100.00;101216.44;5283091;28;20035;-70
2024/01/14 05:09:41;;;;;;;59.10;31.97;;;;;;;-0.16;100.00;101209.47;5282742;28;20019;-70
2024/01/14 05:12:13;;;;;;;60.37;33.80;;;;;;;-0.17;100.00;101210.28;5264950;28;20056;-70
2024/01/14 05:14:44;;;;;;;56.27;32.70;;;;;;;-0.18;100.00;101203.41;5264906;28;20051;-70
2024/01/14 05:17:15;;;;;;;56.63;31.57;;;;;;;-0.21;100.00;101199.06;5282666;28;20089;-70
2024/01/14 05:19:47;;;;;;;53.50;32.20;;;;;;;-0.24;100.00;101195.47;5282652;28;20031;-70
2024/01/14 05:22:19;;;;;;;56.67;33.77;;;;;;;-0.20;100.00;101212.72;5282655;28;20112;-70
2024/01/14 05:24:50;;;;;;;61.25;33.17;;;;;;;-0.26;100.00;101192.00;5282954;28;20017;-70
2024/01/14 05:27:22;;;;;;;55.47;31.70;;;;;;;-0.22;100.00;101194.75;5282377;28;20036;-70
2024/01/14 05:29:53;;;;;;;53.80;31.70;;;;;;;-0.25;100.00;101192.06;5282634;28;20028;-70
2024/01/14 05:32:24;;;;;;;63.07;36.77;;;;;;;-0.30;100.00;101195.28;5282678;28;20460;-70
2024/01/14 05:34:56;;;;;;;58.53;33.60;;;;;;;-0.28;100.00;101189.38;5282744;28;20448;-70
2024/01/14 05:37:27;;;;;;;62.47;35.17;;;;;;;-0.28;100.00;101183.38;5282138;28;20037;-70
2024/01/14 05:39:59;;;;;;;67.10;34.27;;;;;;;-0.24;100.00;101185.22;5281945;28;20392;-70
2024/01/14 05:42:30;;;;;;;66.53;35.17;;;;;;;-0.28;100.00;101178.25;5282341;28;20098;-70
2024/01/14 05:45:01;;;;;;;62.90;35.00;;;;;;;-0.28;100.00;101174.00;5282876;28;20348;-70
2024/01/14 05:47:33;;;;;;;61.63;35.10;;;;;;;-0.26;100.00;101177.53;5285407;28;20441;-69
2024/01/14 05:50:08;;;;;;;63.37;35.90;;;;;;;-0.28;100.00;101181.69;5286252;28;20083;-70
2024/01/14 05:52:40;;;;;;;63.88;36.90;;;;;;;-0.28;100.00;101174.00;5285993;28;20044;-70
2024/01/14 05:55:12;;;;;;;61.10;33.70;;;;;;;-0.28;100.00;101173.13;5285962;28;20025;-70
2024/01/14 05:57:43;;;;;;;64.10;34.30;;;;;;;-0.25;100.00;101168.13;5286176;28;20029;-70
2024/01/14 06:00:15;;;;;;;66.63;37.27;;;;;;;-0.27;100.00;101164.66;5287264;28;20103;-70
2024/01/14 06:02:46;;;;;;;65.73;36.47;;;;;;;-0.28;100.00;101166.31;5284780;28;20021;-70
2024/01/14 06:05:18;;;;;;;62.07;35.20;;;;;;;-0.30;100.00;101161.97;5285794;28;20169;-70
2024/01/14 06:07:49;;;;;;;67.53;36.73;;;;;;;-0.29;100.00;101146.66;5286032;28;20025;-70
2024/01/14 06:10:20;;;;;;;62.50;36.60;;;;;;;-0.28;100.00;101150.94;5285076;28;20397;-70
2024/01/14 06:12:52;;;;;;;70.67;37.87;;;;;;;-0.32;100.00;101148.22;5286063;28;20028;-69
2024/01/14 06:15:23;;;;;;;69.60;36.27;;;;;;;-0.28;100.00;101140.69;5285807;28;20104;-70
2024/01/14 06:17:54;;;;;;;65.80;36.47;;;;;;;-0.27;100.00;101142.47;5286124;28;20079;-70
2024/01/14 06:20:26;;;;;;;60.50;34.97;;;;;;;-0.25;100.00;101138.25;5285833;28;20455;-70
2024/01/14 06:22:57;;;;;;;76.87;36.73;;;;;;;-0.31;100.00;101138.03;5285990;28;20506;-70
2024/01/14 06:25:28;;;;;;;62.53;33.93;;;;;;;-0.27;100.00;101142.47;5286233;28;20056;-70
2024/01/14 06:28:02;;;;;;;61.80;32.80;;;;;;;-0.26;100.00;101140.75;5285625;28;20024;-70
2024/01/14 06:30:34;;;;;;;66.22;33.67;;;;;;;-0.30;100.00;101136.34;5286236;28;20428;-70
2024/01/14 06:33:05;;;;;;;61.80;33.73;;;;;;;-0.27;100.00;101128.78;5285205;28;20114;-70
2024/01/14 06:35:37;;;;;;;60.40;32.70;;;;;;;-0.29;100.00;101127.84;5286032;28;20481;-70
2024/01/14 06:38:08;;;;;;;57.87;34.57;;;;;;;-0.28;100.00;101125.31;5285973;28;20029;-69
2024/01/14 06:40:39;;;;;;;57.73;32.50;;;;;;;-0.32;100.00;101126.03;5285292;28;20036;-70
2024/01/14 06:43:11;;;;;;;57.37;34.27;;;;;;;-0.32;100.00;101115.81;5285328;28;20108;-69
2024/01/14 06:45:43;;;;;;;52.93;35.23;;;;;;;-0.36;100.00;101113.94;5285199;28;20032;-70
2024/01/14 06:48:15;;;;;;;58.43;34.23;;;;;;;-0.38;100.00;101118.13;5285574;28;20376;-69
2024/01/14 06:50:47;;;;;;;59.58;34.72;;;;;;;-0.39;100.00;101118.94;5285774;28;20040;-70
2024/01/14 06:53:19;;;;;;;60.00;34.92;;;;;;;-0.38;100.00;101113.00;5285179;28;20028;-70
2024/01/14 06:55:50;;;;;;;60.27;32.33;;;;;;;-0.38;100.00;101108.75;5285326;28;20020;-70
2024/01/14 06:58:22;;;;;;;55.20;31.33;;;;;;;-0.42;100.00;101098.31;5284043;28;20040;-70
2024/01/14 07:00:53;;;;;;;63.53;32.83;;;;;;;-0.38;100.00;101101.06;5285705;28;20047;-70
2024/01/14 07:03:24;;;;;;;61.50;33.97;;;;;;;-0.41;100.00;101093.25;5284974;28;20193;-73
2024/01/14 07:05:56;;;;;;;60.40;32.47;;;;;;;-0.46;100.00;101097.34;5283545;28;20024;-73
2024/01/14 07:08:27;;;;;;;59.83;32.77;;;;;;;-0.39;100.00;101098.44;5284672;28;20426;-73
2024/01/14 07:11:00;;;;;;;59.43;33.57;;;;;;;-0.46;100.00;101097.34;5285350;28;20028;-73
2024/01/14 07:13:31;;;;;;;61.53;31.85;;;;;;;-0.44;100.00;101097.41;5284762;28;20032;-72
2024/01/14 07:16:03;;;;;;;63.43;36.40;;;;;;;-0.48;100.00;101096.44;5284759;28;20480;-73
2024/01/14 07:18:34;;;;;;;57.23;33.83;;;;;;;-0.43;100.00;101094.03;5284700;28;20024;-73
2024/01/14 07:21:10;;;;;;;63.57;35.20;;;;;;;-0.43;100.00;101104.28;5285187;28;20039;-72
2024/01/14 07:23:42;;;;;;;63.20;34.50;;;;;;;-0.34;100.00;101096.91;5284599;28;20456;-73
2024/01/14 07:26:17;;;;;;;61.60;34.20;;;;;;;-0.44;100.00;101093.16;5284533;28;20028;-73
2024/01/14 07:28:51;;;;;;;59.60;34.88;;;;;;;-0.42;100.00;101094.09;5284716;28;20518;-73
2024/01/14 07:31:30;;;;;;;66.95;35.10;;;;;;;-0.43;100.00;101097.47;5284857;28;20468;-73
2024/01/14 07:34:01;;;;;;;68.78;37.38;;;;;;;-0.45;100.00;101099.09;5284504;28;20031;-73
2024/01/14 07:36:33;;;;;;;63.90;34.23;;;;;;;-0.42;100.00;101088.97;5284554;28;20029;-72
2024/01/14 07:39:04;;;;;;;68.53;39.27;;;;;;;-0.46;100.00;101086.25;5283377;28;20059;-73
2024/01/14 07:41:36;;;;;;;64.90;33.97;;;;;;;-0.43;100.00;101091.47;5284052;28;20035;-74
2024/01/14 07:44:07;;;;;;;66.87;35.80;;;;;;;-0.40;100.00;101086.47;5284083;28;20071;-73
2024/01/14 07:46:38;;;;;;;70.57;36.37;;;;;;;-0.39;100.00;101081.41;5284011;28;20045;-71
2024/01/14 07:49:10;;;;;;;66.23;39.03;;;;;;;-0.45;100.00;101087.97;5284231;28;20376;-72
2024/01/14 07:51:41;;;;;;;62.17;35.70;;;;;;;-0.50;100.00;101092.06;5283667;28;20432;-72
2024/01/14 07:54:13;;;;;;;65.67;38.07;;;;;;;-0.51;100.00;101088.63;5283810;28;20063;-72
2024/01/14 07:56:45;;;;;;;65.27;33.37;;;;;;;-0.46;100.00;101093.94;5284652;28;20398;-72
2024/01/14 07:59:16;;;;;;;58.33;32.77;;;;;;;-0.46;100.00;101084.53;5283468;28;20135;-72
2024/01/14 08:01:47;;;;;;;70.13;32.53;;;;;;;-0.47;100.00;101081.94;5283812;28;20119;-71
2024/01/14 08:04:19;;;;;;;56.93;31.60;;;;;;;-0.42;100.00;101083.84;5283732;28;20075;-73
2024/01/14 08:06:50;;;;;;;55.53;30.73;;;;;;;-0.43;100.00;101094.03;5282219;28;20028;-72
2024/01/14 08:09:22;;;;;;;56.77;32.27;;;;;;;-0.43;100.00;101086.34;5282379;28;20032;-72
2024/01/14 08:11:53;;;;;;;54.00;30.83;;;;;;;-0.40;100.00;101076.22;5284023;28;20116;-72
2024/01/14 08:14:25;;;;;;;46.67;30.73;;;;;;;-0.38;100.00;101072.03;5283669;28;20031;-73
2024/01/14 08:16:56;;;;;;;56.33;30.20;;;;;;;-0.38;100.00;101085.69;5283695;28;20037;-72
2024/01/14 08:19:27;;;;;;;51.73;29.90;;;;;;;-0.36;100.00;101078.06;5283563;28;20035;-72
2024/01/14 08:21:59;;;;;;;50.63;28.50;;;;;;;-0.33;100.00;101077.31;5282445;28;20127;-72
2024/01/14 08:24:30;;;;;;;51.47;30.13;;;;;;;-0.33;100.00;101079.88;5283522;28;20060;-72
2024/01/14 08:27:02;;;;;;;49.80;29.23;;;;;;;-0.30;100.00;101087.69;5283425;28;20051;-71
2024/01/14 08:29:33;;;;;;;55.00;30.40;;;;;;;-0.27;100.00;101080.97;5283079;28;20027;-72
2024/01/14 08:32:05;;;;;;;53.57;30.57;;;;;;;-0.27;100.00;101085.22;5283419;28;20048;-72
2024/01/14 08:34:36;;;;;;;50.73;29.73;;;;;;;-0.24;100.00;101083.66;5283795;28;20123;-72
2024/01/14 08:37:07;;;;;;;58.00;30.83;;;;;;;-0.20;100.00;101085.47;5283171;28;20039;-72
2024/01/14 08:39:39;;;;;;;49.60;29.70;;;;;;;-0.21;100.00;101082.88;5283293;28;20060;-72
2024/01/14 08:42:10;;;;;;;54.97;32.67;;;;;;;-0.23;100.00;101084.50;5283659;28;20078;-72
2024/01/14 08:44:41;;;;;;;52.90;32.00;;;;;;;-0.22;100.00;101078.56;5283172;28;20111;-72
2024/01/14 08:47:13;;;;;;;52.63;31.83;;;;;;;-0.24;100.00;101078.53;5281761;28;20029;-72
2024/01/14 08:49:45;;;;;;;54.47;30.90;;;;;;;-0.23;100.00;101079.38;5282891;28;20109;-72
2024/01/14 08:52:16;;;;;;;54.03;32.07;;;;;;;-0.20;100.00;101072.66;5283055;28;20194;-72
2024/01/14 08:54:48;;;;;;;56.20;31.63;;;;;;;-0.19;100.00;101071.88;5281582;28;20027;-72
2024/01/14 08:57:19;;;;;;;54.27;31.83;;;;;;;-0.14;100.00;101074.59;5283034;28;20063;-73
2024/01/14 08:59:51;;;;;;;57.33;32.93;;;;;;;-0.16;100.00;101076.25;5283385;28;20044;-73
2024/01/14 09:02:23;;;;;;;63.60;30.67;;;;;;;-0.17;100.00;101073.63;5282870;28;20108;-72
2024/01/14 09:04:54;;;;;;;60.90;30.80;;;;;;;-0.15;100.00;101072.84;5282626;28;20476;-72
2024/01/14 09:07:26;;;;;;;50.17;28.37;;;;;;;-0.12;100.00;101074.66;5282914;28;20020;-72
2024/01/14 09:09:57;;;;;;;50.90;28.98;;;;;;;-0.21;100.00;101073.50;5282904;28;20060;-73
2024/01/14 09:12:29;;;;;;;57.20;29.33;;;;;;;-0.16;100.00;101076.25;5282818;28;20456;-73
2024/01/14 09:15:00;;;;;;;51.23;30.03;;;;;;;-0.20;100.00;101071.81;5282927;28;20017;-73
2024/01/14 09:17:32;;;;;;;56.07;31.10;;;;;;;-0.16;100.00;101071.13;5282679;28;20040;-72
2024/01/14 09:20:04;;;;;;;55.07;34.43;;;;;;;-0.23;100.00;101061.44;5283507;28;20021;-72
2024/01/14 09:22:36;;;;;;;50.63;28.52;;;;;;;-0.17;100.00;101056.53;5286956;28;20036;-72
2024/01/14 09:25:07;;;;;;;56.47;35.33;;;;;;;-0.24;100.00;101057.13;5285684;28;20084;-73
2024/01/14 09:27:39;;;;;;;56.80;32.13;;;;;;;-0.21;100.00;101057.25;5286035;28;20025;-72
2024/01/14 09:30:12;;;;;;;50.93;30.57;;;;;;;-0.17;100.00;101053.13;5285895;28;20521;-72
2024/01/14 09:32:43;;;;;;;58.42;33.67;;;;;;;-0.17;100.00;101046.31;5286842;28;20036;-72
2024/01/14 09:35:15;;;;;;;58.67;32.60;;;;;;;-0.11;100.00;101040.50;5286360;28;20348;-73
2024/01/14 09:37:46;;;;;;;61.57;33.13;;;;;;;-0.08;100.00;101055.97;5287140;28;20453;-72
2024/01/14 09:40:18;;;;;;;56.73;32.17;;;;;;;-0.07;100.00;101044.94;5287231;28;20452;-73
2024/01/14 09:42:51;;;;;;;55.90;29.40;;;;;;;-0.05;100.00;101051.88;5286648;28;20562;-73
2024/01/14 09:45:24;;;;;;;56.85;33.13;;;;;;;0.04;100.00;101035.91;5286604;28;20116;-71
2024/01/14 09:47:57;;;;;;;57.63;32.55;;;;;;;0.02;100.00;101044.34;5287884;28;20032;-72
2024/01/14 09:50:31;;;;;;;61.30;35.35;;;;;;;0.03;100.00;101039.28;5286814;28;20056;-72
2024/01/14 09:53:09;;;;;;;52.00;32.83;;;;;;;0.06;100.00;101031.69;5285187;28;20016;-72
2024/01/14 09:55:40;;;;;;;54.60;32.15;;;;;;;0.11;100.00;101039.56;5286799;28;20071;-73
2024/01/14 09:58:12;;;;;;;56.33;32.43;;;;;;;0.12;100.00;101036.19;5286578;28;20056;-72
2024/01/14 10:00:44;;;;;;;52.93;32.07;;;;;;;0.13;100.00;101035.34;5287300;28;20071;-73
2024/01/14 10:03:15;;;;;;;54.40;31.80;;;;;;;0.20;100.00;101036.44;5286318;28;20039;-73
2024/01/14 10:05:48;;;;;;;54.43;33.03;;;;;;;0.11;100.00;101037.88;5286263;28;20139;-73
2024/01/14 10:08:19;;;;;;;54.30;32.15;;;;;;;0.16;100.00;101035.44;5286425;28;20020;-73
2024/01/14 10:10:52;;;;;;;56.27;30.73;;;;;;;0.25;100.00;101037.47;5286412;28;20021;-72
2024/01/14 10:13:24;;;;;;;57.67;32.13;;;;;;;0.19;100.00;101035.56;5285880;28;20107;-72
2024/01/14 10:15:56;;;;;;;53.33;32.13;;;;;;;0.25;100.00;101038.31;5285538;28;20452;-71
2024/01/14 10:18:27;;;;;;;50.97;32.13;;;;;;;0.23;100.00;101028.84;5286850;28;20039;-71
2024/01/14 10:21:01;;;;;;;46.13;28.77;;;;;;;0.28;100.00;101028.19;5287363;28;20020;-73
2024/01/14 10:23:33;;;;;;;46.78;29.75;;;;;;;0.33;100.00;101031.75;5286091;28;20048;-72
2024/01/14 10:26:04;;;;;;;47.67;27.93;;;;;;;0.30;100.00;101018.84;5285829;28;20163;-72
2024/01/14 10:28:37;;;;;;;44.93;27.90;;;;;;;0.32;100.00;101021.44;5286546;28;20107;-72
2024/01/14 10:31:08;;;;;;;50.90;31.75;;;;;;;0.19;100.00;101020.16;5285571;28;20024;-72
2024/01/14 10:33:39;;;;;;;46.47;29.23;;;;;;;0.30;100.00;101013.69;5285606;28;20516;-72
2024/01/14 10:36:11;;;;;;;44.57;28.07;;;;;;;0.27;100.00;101011.03;5285600;28;20124;-72
2024/01/14 10:38:42;;;;;;;43.00;27.53;;;;;;;0.23;100.00;101008.34;5285259;28;20581;-72
2024/01/14 10:41:14;;;;;;;42.83;28.10;;;;;;;0.24;100.00;101005.84;5285474;28;20448;-71
2024/01/14 10:43:45;;;;;;;41.10;25.97;;;;;;;0.22;100.00;101007.47;5285559;28;20028;-72
2024/01/14 10:46:17;;;;;;;44.33;27.87;;;;;;;0.19;100.00;101007.34;5285377;28;20035;-72
2024/01/14 10:48:52;;;;;;;43.40;29.20;;;;;;;0.08;100.00;100999.31;5285366;28;20028;-72
2024/01/14 10:51:25;;;;;;;46.75;28.05;;;;;;;0.09;100.00;100992.50;5285378;28;20032;-72
2024/01/14 10:54:18;;;;;;;49.38;30.40;;;;;;;0.09;100.00;100987.38;5285298;28;20024;-72
2024/01/14 10:56:54;;;;;;;;;;;;;;;0.07;100.00;100986.47;5285691;28;20363;-72
2024/01/14 10:59:28;;;;;;;53.67;29.63;;;;;;;0.02;100.00;100976.06;5285040;28;19912;-72
2024/01/14 11:02:04;;;;;;;52.90;29.63;;;;;;;0.02;100.00;100968.38;5285014;28;20578;-72
2024/01/14 11:04:36;;;;;;;52.53;30.17;;;;;;;-0.03;100.00;100970.78;5285937;28;20460;-72
2024/01/14 11:07:07;;;;;;;54.17;30.63;;;;;;;-0.17;100.00;100959.19;5285202;28;20111;-72
2024/01/14 11:09:41;;;;;;;52.00;30.43;;;;;;;-0.20;100.00;100951.38;5284963;28;20504;-72
2024/01/14 11:12:21;;;;;;;53.95;31.83;;;;;;;-0.28;100.00;100940.00;5285049;28;20057;-71
2024/01/14 11:15:01;;;;;;;51.53;30.00;;;;;;;-0.27;100.00;100941.78;5285355;28;20056;-72
2024/01/14 11:18:04;;;;;;;56.65;31.50;;;;;;;-0.31;100.00;100937.34;5284807;28;20025;-71
2024/01/14 11:20:38;;;;;;;;;;;;;;;-0.36;100.00;100939.75;5285473;28;20021;-72
2024/01/14 11:23:09;;;;;;;55.90;31.17;;;;;;;-0.34;100.00;100927.00;5284741;28;20378;-71
2024/01/14 11:25:45;;;;;;;56.13;33.03;;;;;;;-0.33;100.00;100929.63;5284616;28;20016;-72